Norfolk International Airport
KORF : now visible

Airfield :











YOU CAN JOIN US ON...

 
LOGIN :

Register | Disclaimer

   EN    FR    IT 

 









Legend :    VFR   Marginal VFR   IFR   Intensive IFR   Very Intensive IFR
Visi :
Ceiling :
>= 8 km
>= 3000ft
5 to 8 km
1000 to 3000 ft
1500m to 5 km
500 to 1000 ft
800 to 1500m
200 to 500 ft
< 800m
< 200 ft
Symbols :   Thunderstorms  Fog  Heavy snow  Heavy precipitations  Wind > 20 kt






- Airport Elevation : 26 ft
- IATA code : ORF


KORF - Norfolk International

CURRENT METAR :
  • 260551Z 26004KT 10SM BKN033 08/06 A2992 RMK AO2 SLP131 T00780061 10133 20056 53005

EXPIRED METARs :
  • 260451Z 25003KT 10SM CLR 07/05 A2991 RMK AO2 SLP127 T00670050 401830067
  • 260351Z 36003KT 10SM CLR 08/06 A2991 RMK AO2 SLP126 T00830056

TAF KORF
Valid from the 26 at 06:00 until the 27 at 06:00 UTC


260522Z 2606/2706 25004KT P6SM SCT030
FM261400 29006KT P6SM SCT120
FM262300 26005KT P6SM SKC



MET'MAP, your aeronautical weather chart ! - Copyright ORBIFLY December 2007 - Disclaimer

ORBIFLY MET'MAP TEAM :

Programming & Development : Alexandra Zaïnal
Concept & original design : Baudouin d'Aumeries
Assistance for programming : Marc-Olivier Méhu
Technical & hardware support : Manuel Goepfert

Contact : metmap@orbifly.com




SOURCES & CREDITS :

   NOAA       Earth
Advisory